sensor_id;sensor_type;location;lat;lon;timestamp;P1;durP1;ratioP1;P2;durP2;ratioP2
5869;SDS011;2961;47.702;9.410;2022-09-24T00:01:43;12.70;;;10.37;;
5869;SDS011;2961;47.702;9.410;2022-09-24T00:04:11;12.17;;;10.40;;
5869;SDS011;2961;47.702;9.410;2022-09-24T00:06:39;20.53;;;10.03;;
5869;SDS011;2961;47.702;9.410;2022-09-24T00:09:08;12.50;;;9.93;;
5869;SDS011;2961;47.702;9.410;2022-09-24T00:11:36;10.20;;;8.90;;
5869;SDS011;2961;47.702;9.410;2022-09-24T00:14:04;12.40;;;10.50;;
5869;SDS011;2961;47.702;9.410;2022-09-24T00:16:33;12.37;;;9.73;;
5869;SDS011;2961;47.702;9.410;2022-09-24T00:19:00;12.73;;;9.20;;
5869;SDS011;2961;47.702;9.410;2022-09-24T00:21:28;14.70;;;11.50;;
5869;SDS011;2961;47.702;9.410;2022-09-24T00:23:57;11.33;;;10.20;;
5869;SDS011;2961;47.702;9.410;2022-09-24T00:26:25;11.77;;;9.67;;
5869;SDS011;2961;47.702;9.410;2022-09-24T00:29:10;11.30;;;10.20;;
5869;SDS011;2961;47.702;9.410;2022-09-24T00:31:40;14.50;;;11.40;;
5869;SDS011;2961;47.702;9.410;2022-09-24T00:34:07;10.67;;;9.30;;
5869;SDS011;2961;47.702;9.410;2022-09-24T00:36:34;10.53;;;9.47;;
5869;SDS011;2961;47.702;9.410;2022-09-24T00:39:01;15.70;;;10.47;;
5869;SDS011;2961;47.702;9.410;2022-09-24T00:41:29;12.10;;;10.63;;
5869;SDS011;2961;47.702;9.410;2022-09-24T00:43:58;10.77;;;9.77;;
5869;SDS011;2961;47.702;9.410;2022-09-24T00:46:26;16.83;;;11.00;;
5869;SDS011;2961;47.702;9.410;2022-09-24T00:48:57;14.70;;;10.17;;
5869;SDS011;2961;47.702;9.410;2022-09-24T00:51:28;14.80;;;9.90;;
5869;SDS011;2961;47.702;9.410;2022-09-24T00:53:58;11.73;;;8.70;;
5869;SDS011;2961;47.702;9.410;2022-09-24T00:56:29;10.33;;;9.00;;
5869;SDS011;2961;47.702;9.410;2022-09-24T00:59:00;9.83;;;8.93;;
5869;SDS011;2961;47.702;9.410;2022-09-24T01:01:30;8.60;;;7.10;;
5869;SDS011;2961;47.702;9.410;2022-09-24T01:03:58;9.50;;;7.97;;
5869;SDS011;2961;47.702;9.410;2022-09-24T01:06:26;8.60;;;7.70;;
5869;SDS011;2961;47.702;9.410;2022-09-24T01:08:53;11.17;;;9.70;;
5869;SDS011;2961;47.702;9.410;2022-09-24T01:11:25;15.73;;;9.83;;
5869;SDS011;2961;47.702;9.410;2022-09-24T01:14:08;13.33;;;8.20;;
5869;SDS011;2961;47.702;9.410;2022-09-24T01:16:58;8.97;;;7.90;;
5869;SDS011;2961;47.702;9.410;2022-09-24T01:19:51;10.90;;;9.80;;
5869;SDS011;2961;47.702;9.410;2022-09-24T01:22:52;13.80;;;10.20;;
5869;SDS011;2961;47.702;9.410;2022-09-24T01:25:36;10.40;;;8.93;;
5869;SDS011;2961;47.702;9.410;2022-09-24T01:28:13;14.73;;;10.03;;
5869;SDS011;2961;47.702;9.410;2022-09-24T01:30:56;10.47;;;9.37;;
5869;SDS011;2961;47.702;9.410;2022-09-24T01:33:29;14.83;;;9.10;;
5869;SDS011;2961;47.702;9.410;2022-09-24T01:35:59;11.80;;;9.63;;
5869;SDS011;2961;47.702;9.410;2022-09-24T01:38:33;10.73;;;9.13;;
5869;SDS011;2961;47.702;9.410;2022-09-24T01:41:02;11.50;;;8.67;;
5869;SDS011;2961;47.702;9.410;2022-09-24T01:43:31;12.27;;;8.93;;
5869;SDS011;2961;47.702;9.410;2022-09-24T01:46:01;13.33;;;8.40;;
5869;SDS011;2961;47.702;9.410;2022-09-24T01:48:31;8.67;;;7.80;;
5869;SDS011;2961;47.702;9.410;2022-09-24T01:50:59;12.37;;;7.43;;
5869;SDS011;2961;47.702;9.410;2022-09-24T01:53:30;8.47;;;7.63;;
5869;SDS011;2961;47.702;9.410;2022-09-24T01:56:01;9.00;;;7.87;;
5869;SDS011;2961;47.702;9.410;2022-09-24T01:58:32;8.83;;;7.90;;
5869;SDS011;2961;47.702;9.410;2022-09-24T02:01:09;7.33;;;6.63;;
5869;SDS011;2961;47.702;9.410;2022-09-24T02:03:39;9.63;;;7.47;;
5869;SDS011;2961;47.702;9.410;2022-09-24T02:06:11;8.43;;;7.57;;
5869;SDS011;2961;47.702;9.410;2022-09-24T02:08:44;9.03;;;7.20;;
5869;SDS011;2961;47.702;9.410;2022-09-24T02:11:14;9.30;;;7.50;;
5869;SDS011;2961;47.702;9.410;2022-09-24T02:13:42;9.50;;;6.60;;
5869;SDS011;2961;47.702;9.410;2022-09-24T02:16:14;7.83;;;7.10;;
5869;SDS011;2961;47.702;9.410;2022-09-24T02:18:47;7.60;;;6.90;;
5869;SDS011;2961;47.702;9.410;2022-09-24T02:21:16;10.17;;;8.13;;
5869;SDS011;2961;47.702;9.410;2022-09-24T02:23:46;7.23;;;6.63;;
5869;SDS011;2961;47.702;9.410;2022-09-24T02:26:16;9.60;;;7.70;;
5869;SDS011;2961;47.702;9.410;2022-09-24T02:28:43;17.53;;;9.30;;
5869;SDS011;2961;47.702;9.410;2022-09-24T02:31:12;10.47;;;8.70;;
5869;SDS011;2961;47.702;9.410;2022-09-24T02:33:44;11.40;;;8.50;;
5869;SDS011;2961;47.702;9.410;2022-09-24T02:36:31;11.03;;;9.07;;
5869;SDS011;2961;47.702;9.410;2022-09-24T02:38:59;12.00;;;10.27;;
5869;SDS011;2961;47.702;9.410;2022-09-24T02:41:27;16.63;;;11.70;;
5869;SDS011;2961;47.702;9.410;2022-09-24T02:43:56;14.13;;;12.00;;
5869;SDS011;2961;47.702;9.410;2022-09-24T02:46:25;12.70;;;11.20;;
5869;SDS011;2961;47.702;9.410;2022-09-24T02:48:52;17.97;;;11.30;;
5869;SDS011;2961;47.702;9.410;2022-09-24T02:51:19;13.50;;;11.17;;
5869;SDS011;2961;47.702;9.410;2022-09-24T02:53:46;20.47;;;10.67;;
5869;SDS011;2961;47.702;9.410;2022-09-24T02:56:13;13.50;;;11.37;;
5869;SDS011;2961;47.702;9.410;2022-09-24T02:58:40;24.70;;;12.10;;
5869;SDS011;2961;47.702;9.410;2022-09-24T03:01:07;13.47;;;11.93;;
5869;SDS011;2961;47.702;9.410;2022-09-24T03:03:35;16.53;;;11.87;;
5869;SDS011;2961;47.702;9.410;2022-09-24T03:06:02;20.13;;;12.97;;
5869;SDS011;2961;47.702;9.410;2022-09-24T03:08:30;17.80;;;12.27;;
5869;SDS011;2961;47.702;9.410;2022-09-24T03:10:57;16.77;;;12.67;;
5869;SDS011;2961;47.702;9.410;2022-09-24T03:13:25;19.60;;;12.90;;
5869;SDS011;2961;47.702;9.410;2022-09-24T03:15:52;14.63;;;13.13;;
5869;SDS011;2961;47.702;9.410;2022-09-24T03:18:18;17.23;;;12.60;;
5869;SDS011;2961;47.702;9.410;2022-09-24T03:20:54;14.47;;;12.90;;
5869;SDS011;2961;47.702;9.410;2022-09-24T03:23:22;15.20;;;13.60;;
5869;SDS011;2961;47.702;9.410;2022-09-24T03:25:49;18.03;;;14.63;;
5869;SDS011;2961;47.702;9.410;2022-09-24T03:28:16;16.43;;;13.87;;
5869;SDS011;2961;47.702;9.410;2022-09-24T03:30:43;14.73;;;12.43;;
5869;SDS011;2961;47.702;9.410;2022-09-24T03:33:25;22.07;;;15.23;;
5869;SDS011;2961;47.702;9.410;2022-09-24T03:35:58;18.37;;;14.10;;
5869;SDS011;2961;47.702;9.410;2022-09-24T03:38:26;18.43;;;14.50;;
5869;SDS011;2961;47.702;9.410;2022-09-24T03:40:54;18.47;;;14.20;;
5869;SDS011;2961;47.702;9.410;2022-09-24T03:43:21;20.47;;;14.20;;
5869;SDS011;2961;47.702;9.410;2022-09-24T03:45:48;24.70;;;15.50;;
5869;SDS011;2961;47.702;9.410;2022-09-24T03:48:15;21.50;;;14.87;;
5869;SDS011;2961;47.702;9.410;2022-09-24T03:50:43;18.17;;;15.07;;
5869;SDS011;2961;47.702;9.410;2022-09-24T03:53:12;17.37;;;13.50;;
5869;SDS011;2961;47.702;9.410;2022-09-24T03:55:43;16.53;;;14.03;;
5869;SDS011;2961;47.702;9.410;2022-09-24T03:58:11;16.33;;;14.20;;
5869;SDS011;2961;47.702;9.410;2022-09-24T04:00:38;16.77;;;13.90;;
5869;SDS011;2961;47.702;9.410;2022-09-24T04:03:05;20.23;;;15.00;;
5869;SDS011;2961;47.702;9.410;2022-09-24T04:05:32;17.00;;;13.67;;
5869;SDS011;2961;47.702;9.410;2022-09-24T04:07:59;19.87;;;15.60;;
5869;SDS011;2961;47.702;9.410;2022-09-24T04:10:28;16.73;;;14.33;;
5869;SDS011;2961;47.702;9.410;2022-09-24T04:12:55;16.00;;;14.30;;
5869;SDS011;2961;47.702;9.410;2022-09-24T04:15:22;21.30;;;16.80;;
5869;SDS011;2961;47.702;9.410;2022-09-24T04:17:50;29.50;;;16.40;;
5869;SDS011;2961;47.702;9.410;2022-09-24T04:20:18;23.20;;;16.73;;
5869;SDS011;2961;47.702;9.410;2022-09-24T04:22:46;19.23;;;15.80;;
5869;SDS011;2961;47.702;9.410;2022-09-24T04:25:14;20.17;;;15.80;;
5869;SDS011;2961;47.702;9.410;2022-09-24T04:27:43;17.40;;;15.17;;
5869;SDS011;2961;47.702;9.410;2022-09-24T04:30:10;20.33;;;16.50;;
5869;SDS011;2961;47.702;9.410;2022-09-24T04:32:39;24.33;;;16.87;;
5869;SDS011;2961;47.702;9.410;2022-09-24T04:35:07;28.03;;;17.20;;
5869;SDS011;2961;47.702;9.410;2022-09-24T04:37:34;22.63;;;16.53;;
5869;SDS011;2961;47.702;9.410;2022-09-24T04:40:02;21.60;;;15.97;;
5869;SDS011;2961;47.702;9.410;2022-09-24T04:42:29;19.70;;;16.60;;
5869;SDS011;2961;47.702;9.410;2022-09-24T04:44:57;21.30;;;16.30;;
5869;SDS011;2961;47.702;9.410;2022-09-24T04:47:45;22.13;;;16.40;;
5869;SDS011;2961;47.702;9.410;2022-09-24T04:50:20;20.00;;;15.80;;
5869;SDS011;2961;47.702;9.410;2022-09-24T04:52:47;22.60;;;16.83;;
5869;SDS011;2961;47.702;9.410;2022-09-24T04:55:13;21.87;;;15.10;;
5869;SDS011;2961;47.702;9.410;2022-09-24T04:57:40;19.80;;;15.90;;
5869;SDS011;2961;47.702;9.410;2022-09-24T05:00:12;20.17;;;16.53;;
5869;SDS011;2961;47.702;9.410;2022-09-24T05:02:41;27.13;;;17.63;;
5869;SDS011;2961;47.702;9.410;2022-09-24T05:05:09;24.23;;;18.23;;
5869;SDS011;2961;47.702;9.410;2022-09-24T05:07:36;22.67;;;17.43;;
5869;SDS011;2961;47.702;9.410;2022-09-24T05:10:03;25.50;;;19.00;;
5869;SDS011;2961;47.702;9.410;2022-09-24T05:12:31;24.07;;;17.20;;
5869;SDS011;2961;47.702;9.410;2022-09-24T05:14:59;25.30;;;19.80;;
5869;SDS011;2961;47.702;9.410;2022-09-24T05:17:27;22.30;;;17.43;;
5869;SDS011;2961;47.702;9.410;2022-09-24T05:19:54;36.50;;;21.00;;
5869;SDS011;2961;47.702;9.410;2022-09-24T05:22:22;81.07;;;41.00;;
5869;SDS011;2961;47.702;9.410;2022-09-24T05:24:51;66.90;;;31.13;;
5869;SDS011;2961;47.702;9.410;2022-09-24T05:27:18;39.40;;;23.60;;
5869;SDS011;2961;47.702;9.410;2022-09-24T05:29:45;28.57;;;19.87;;
5869;SDS011;2961;47.702;9.410;2022-09-24T05:32:14;29.37;;;19.00;;
5869;SDS011;2961;47.702;9.410;2022-09-24T05:34:44;27.53;;;19.70;;
5869;SDS011;2961;47.702;9.410;2022-09-24T05:37:12;26.77;;;19.47;;
5869;SDS011;2961;47.702;9.410;2022-09-24T05:39:39;30.17;;;20.50;;
5869;SDS011;2961;47.702;9.410;2022-09-24T05:42:08;21.33;;;17.30;;
5869;SDS011;2961;47.702;9.410;2022-09-24T05:44:37;32.30;;;20.00;;
5869;SDS011;2961;47.702;9.410;2022-09-24T05:47:07;28.83;;;20.10;;
5869;SDS011;2961;47.702;9.410;2022-09-24T05:49:34;23.20;;;17.43;;
5869;SDS011;2961;47.702;9.410;2022-09-24T05:52:02;23.60;;;19.07;;
5869;SDS011;2961;47.702;9.410;2022-09-24T05:54:29;40.03;;;22.10;;
5869;SDS011;2961;47.702;9.410;2022-09-24T05:56:58;32.77;;;22.37;;
5869;SDS011;2961;47.702;9.410;2022-09-24T05:59:25;27.20;;;20.10;;
5869;SDS011;2961;47.702;9.410;2022-09-24T06:01:52;30.33;;;19.60;;
5869;SDS011;2961;47.702;9.410;2022-09-24T06:04:22;27.40;;;19.40;;
5869;SDS011;2961;47.702;9.410;2022-09-24T06:06:49;24.40;;;19.30;;
5869;SDS011;2961;47.702;9.410;2022-09-24T06:09:17;26.13;;;19.33;;
5869;SDS011;2961;47.702;9.410;2022-09-24T06:11:53;28.97;;;21.23;;
5869;SDS011;2961;47.702;9.410;2022-09-24T06:14:20;27.67;;;20.33;;
5869;SDS011;2961;47.702;9.410;2022-09-24T06:16:47;21.30;;;17.73;;
5869;SDS011;2961;47.702;9.410;2022-09-24T06:19:14;26.50;;;19.70;;
5869;SDS011;2961;47.702;9.410;2022-09-24T06:21:41;28.43;;;19.93;;
5869;SDS011;2961;47.702;9.410;2022-09-24T06:24:10;25.27;;;18.70;;
5869;SDS011;2961;47.702;9.410;2022-09-24T06:26:38;25.27;;;19.77;;
5869;SDS011;2961;47.702;9.410;2022-09-24T06:29:06;28.07;;;19.80;;
5869;SDS011;2961;47.702;9.410;2022-09-24T06:31:33;27.30;;;19.50;;
5869;SDS011;2961;47.702;9.410;2022-09-24T06:34:00;27.87;;;20.37;;
5869;SDS011;2961;47.702;9.410;2022-09-24T06:36:27;21.73;;;17.50;;
5869;SDS011;2961;47.702;9.410;2022-09-24T06:38:54;20.10;;;16.93;;
5869;SDS011;2961;47.702;9.410;2022-09-24T06:41:23;30.47;;;20.93;;
5869;SDS011;2961;47.702;9.410;2022-09-24T06:43:53;25.80;;;19.17;;
5869;SDS011;2961;47.702;9.410;2022-09-24T06:46:20;28.17;;;19.27;;
5869;SDS011;2961;47.702;9.410;2022-09-24T06:48:49;28.70;;;22.13;;
5869;SDS011;2961;47.702;9.410;2022-09-24T06:51:18;22.40;;;19.10;;
5869;SDS011;2961;47.702;9.410;2022-09-24T06:53:44;33.50;;;21.17;;
5869;SDS011;2961;47.702;9.410;2022-09-24T06:56:11;25.60;;;20.43;;
5869;SDS011;2961;47.702;9.410;2022-09-24T06:58:38;26.43;;;20.20;;
5869;SDS011;2961;47.702;9.410;2022-09-24T07:01:06;27.60;;;19.57;;
5869;SDS011;2961;47.702;9.410;2022-09-24T07:03:33;26.80;;;20.57;;
5869;SDS011;2961;47.702;9.410;2022-09-24T07:06:00;28.63;;;21.40;;
5869;SDS011;2961;47.702;9.410;2022-09-24T07:08:29;22.50;;;17.60;;
5869;SDS011;2961;47.702;9.410;2022-09-24T07:10:56;26.37;;;18.70;;
5869;SDS011;2961;47.702;9.410;2022-09-24T07:13:23;23.03;;;17.50;;
5869;SDS011;2961;47.702;9.410;2022-09-24T07:15:50;36.30;;;18.93;;
5869;SDS011;2961;47.702;9.410;2022-09-24T07:18:19;26.20;;;19.30;;
5869;SDS011;2961;47.702;9.410;2022-09-24T07:20:50;20.97;;;17.33;;
5869;SDS011;2961;47.702;9.410;2022-09-24T07:23:17;23.20;;;17.87;;
5869;SDS011;2961;47.702;9.410;2022-09-24T07:25:45;22.63;;;15.07;;
5869;SDS011;2961;47.702;9.410;2022-09-24T07:28:13;19.13;;;15.13;;
5869;SDS011;2961;47.702;9.410;2022-09-24T07:30:40;18.03;;;14.00;;
5869;SDS011;2961;47.702;9.410;2022-09-24T07:33:07;30.73;;;16.20;;
5869;SDS011;2961;47.702;9.410;2022-09-24T07:35:37;19.00;;;14.10;;
5869;SDS011;2961;47.702;9.410;2022-09-24T07:38:05;21.53;;;13.50;;
5869;SDS011;2961;47.702;9.410;2022-09-24T07:40:33;23.63;;;14.67;;
5869;SDS011;2961;47.702;9.410;2022-09-24T07:43:00;18.10;;;14.80;;
5869;SDS011;2961;47.702;9.410;2022-09-24T07:45:27;18.40;;;12.90;;
5869;SDS011;2961;47.702;9.410;2022-09-24T07:47:56;17.93;;;12.87;;
5869;SDS011;2961;47.702;9.410;2022-09-24T07:50:24;17.23;;;13.53;;
5869;SDS011;2961;47.702;9.410;2022-09-24T07:52:53;21.87;;;13.90;;
5869;SDS011;2961;47.702;9.410;2022-09-24T07:55:20;16.53;;;12.73;;
5869;SDS011;2961;47.702;9.410;2022-09-24T07:57:48;20.97;;;15.10;;
5869;SDS011;2961;47.702;9.410;2022-09-24T08:00:16;22.33;;;17.67;;
5869;SDS011;2961;47.702;9.410;2022-09-24T08:02:44;32.37;;;24.80;;
5869;SDS011;2961;47.702;9.410;2022-09-24T08:05:11;33.37;;;23.40;;
5869;SDS011;2961;47.702;9.410;2022-09-24T08:07:39;29.53;;;21.23;;
5869;SDS011;2961;47.702;9.410;2022-09-24T08:10:08;20.70;;;17.10;;
5869;SDS011;2961;47.702;9.410;2022-09-24T08:12:35;14.33;;;12.80;;
5869;SDS011;2961;47.702;9.410;2022-09-24T08:15:02;13.97;;;12.57;;
5869;SDS011;2961;47.702;9.410;2022-09-24T08:17:29;16.27;;;12.47;;
5869;SDS011;2961;47.702;9.410;2022-09-24T08:19:56;14.10;;;11.70;;
5869;SDS011;2961;47.702;9.410;2022-09-24T08:22:23;14.87;;;12.00;;
5869;SDS011;2961;47.702;9.410;2022-09-24T08:24:50;15.47;;;11.30;;
5869;SDS011;2961;47.702;9.410;2022-09-24T08:27:18;10.97;;;9.93;;
5869;SDS011;2961;47.702;9.410;2022-09-24T08:29:45;11.40;;;10.20;;
5869;SDS011;2961;47.702;9.410;2022-09-24T08:32:12;11.90;;;10.27;;
5869;SDS011;2961;47.702;9.410;2022-09-24T08:34:39;10.33;;;9.33;;
5869;SDS011;2961;47.702;9.410;2022-09-24T08:37:06;10.37;;;9.47;;
5869;SDS011;2961;47.702;9.410;2022-09-24T08:39:33;15.07;;;9.10;;
5869;SDS011;2961;47.702;9.410;2022-09-24T08:42:01;9.63;;;8.33;;
5869;SDS011;2961;47.702;9.410;2022-09-24T08:44:34;9.17;;;8.30;;
5869;SDS011;2961;47.702;9.410;2022-09-24T08:47:25;8.80;;;7.90;;
5869;SDS011;2961;47.702;9.410;2022-09-24T08:50:01;13.33;;;7.53;;
5869;SDS011;2961;47.702;9.410;2022-09-24T08:52:39;16.93;;;8.73;;
5869;SDS011;2961;47.702;9.410;2022-09-24T08:55:29;14.60;;;8.90;;
5869;SDS011;2961;47.702;9.410;2022-09-24T08:58:01;26.03;;;14.90;;
5869;SDS011;2961;47.702;9.410;2022-09-24T09:00:52;23.87;;;16.33;;
5869;SDS011;2961;47.702;9.410;2022-09-24T09:03:25;10.10;;;8.83;;
5869;SDS011;2961;47.702;9.410;2022-09-24T09:05:58;19.60;;;9.00;;
5869;SDS011;2961;47.702;9.410;2022-09-24T09:08:31;11.47;;;6.53;;
5869;SDS011;2961;47.702;9.410;2022-09-24T09:11:02;10.50;;;9.50;;
5869;SDS011;2961;47.702;9.410;2022-09-24T09:13:34;9.73;;;8.30;;
5869;SDS011;2961;47.702;9.410;2022-09-24T09:16:06;16.27;;;11.70;;
5869;SDS011;2961;47.702;9.410;2022-09-24T09:18:44;13.80;;;11.00;;
5869;SDS011;2961;47.702;9.410;2022-09-24T09:21:15;13.03;;;10.27;;
5869;SDS011;2961;47.702;9.410;2022-09-24T09:23:45;12.70;;;6.40;;
5869;SDS011;2961;47.702;9.410;2022-09-24T09:26:13;6.03;;;5.60;;
5869;SDS011;2961;47.702;9.410;2022-09-24T09:28:42;5.10;;;4.80;;
5869;SDS011;2961;47.702;9.410;2022-09-24T09:31:14;8.00;;;5.80;;
5869;SDS011;2961;47.702;9.410;2022-09-24T09:33:54;9.00;;;5.43;;
5869;SDS011;2961;47.702;9.410;2022-09-24T09:36:34;7.70;;;6.50;;
5869;SDS011;2961;47.702;9.410;2022-09-24T09:39:18;5.10;;;4.70;;
5869;SDS011;2961;47.702;9.410;2022-09-24T09:41:55;7.80;;;4.30;;
5869;SDS011;2961;47.702;9.410;2022-09-24T09:44:29;5.33;;;4.83;;
5869;SDS011;2961;47.702;9.410;2022-09-24T09:47:04;4.47;;;4.17;;
5869;SDS011;2961;47.702;9.410;2022-09-24T09:49:41;4.17;;;3.77;;
5869;SDS011;2961;47.702;9.410;2022-09-24T09:52:12;4.63;;;4.23;;
5869;SDS011;2961;47.702;9.410;2022-09-24T09:54:41;4.50;;;3.73;;
5869;SDS011;2961;47.702;9.410;2022-09-24T09:57:11;3.40;;;3.10;;
5869;SDS011;2961;47.702;9.410;2022-09-24T09:59:41;3.43;;;3.13;;
5869;SDS011;2961;47.702;9.410;2022-09-24T10:02:16;5.60;;;3.50;;
5869;SDS011;2961;47.702;9.410;2022-09-24T10:04:50;3.33;;;3.10;;
5869;SDS011;2961;47.702;9.410;2022-09-24T10:07:19;3.90;;;3.60;;
5869;SDS011;2961;47.702;9.410;2022-09-24T10:09:45;3.03;;;2.83;;
5869;SDS011;2961;47.702;9.410;2022-09-24T10:12:24;3.30;;;2.83;;
5869;SDS011;2961;47.702;9.410;2022-09-24T10:14:55;3.07;;;2.87;;
5869;SDS011;2961;47.702;9.410;2022-09-24T10:17:28;3.43;;;3.23;;
5869;SDS011;2961;47.702;9.410;2022-09-24T10:19:59;4.47;;;3.23;;
5869;SDS011;2961;47.702;9.410;2022-09-24T10:22:27;4.87;;;3.17;;
5869;SDS011;2961;47.702;9.410;2022-09-24T10:24:55;2.97;;;2.70;;
5869;SDS011;2961;47.702;9.410;2022-09-24T10:27:27;3.30;;;3.03;;
5869;SDS011;2961;47.702;9.410;2022-09-24T10:29:57;2.70;;;2.60;;
5869;SDS011;2961;47.702;9.410;2022-09-24T10:32:45;5.37;;;3.20;;
5869;SDS011;2961;47.702;9.410;2022-09-24T10:35:22;3.50;;;3.17;;
5869;SDS011;2961;47.702;9.410;2022-09-24T10:37:53;3.50;;;3.20;;
5869;SDS011;2961;47.702;9.410;2022-09-24T10:40:22;3.60;;;3.30;;
5869;SDS011;2961;47.702;9.410;2022-09-24T10:42:55;4.77;;;3.27;;
5869;SDS011;2961;47.702;9.410;2022-09-24T10:45:26;3.97;;;3.70;;
5869;SDS011;2961;47.702;9.410;2022-09-24T10:48:14;3.73;;;2.93;;
5869;SDS011;2961;47.702;9.410;2022-09-24T10:50:45;3.97;;;3.63;;
5869;SDS011;2961;47.702;9.410;2022-09-24T10:53:21;4.23;;;3.83;;
5869;SDS011;2961;47.702;9.410;2022-09-24T10:55:56;4.30;;;3.77;;
5869;SDS011;2961;47.702;9.410;2022-09-24T10:58:40;6.20;;;4.57;;
5869;SDS011;2961;47.702;9.410;2022-09-24T11:01:21;4.70;;;4.30;;
5869;SDS011;2961;47.702;9.410;2022-09-24T11:06:50;4.43;;;4.10;;
5869;SDS011;2961;47.702;9.410;2022-09-24T11:09:33;5.23;;;4.83;;
5869;SDS011;2961;47.702;9.410;2022-09-24T11:12:08;4.77;;;4.30;;
5869;SDS011;2961;47.702;9.410;2022-09-24T11:14:51;5.03;;;4.47;;
5869;SDS011;2961;47.702;9.410;2022-09-24T11:17:32;5.03;;;4.63;;
5869;SDS011;2961;47.702;9.410;2022-09-24T11:20:15;4.97;;;4.60;;
5869;SDS011;2961;47.702;9.410;2022-09-24T11:22:54;5.13;;;4.73;;
5869;SDS011;2961;47.702;9.410;2022-09-24T11:25:45;4.40;;;4.00;;
5869;SDS011;2961;47.702;9.410;2022-09-24T11:28:20;4.47;;;4.07;;
5869;SDS011;2961;47.702;9.410;2022-09-24T11:30:57;6.00;;;5.17;;
5869;SDS011;2961;47.702;9.410;2022-09-24T11:33:32;12.03;;;7.70;;
5869;SDS011;2961;47.702;9.410;2022-09-24T11:36:29;5.87;;;5.37;;
5869;SDS011;2961;47.702;9.410;2022-09-24T11:39:14;47.83;;;18.13;;
5869;SDS011;2961;47.702;9.410;2022-09-24T11:41:54;11.60;;;7.83;;
5869;SDS011;2961;47.702;9.410;2022-09-24T11:47:29;10.63;;;7.20;;
5869;SDS011;2961;47.702;9.410;2022-09-24T11:50:14;6.83;;;4.60;;
5869;SDS011;2961;47.702;9.410;2022-09-24T11:52:53;4.40;;;4.07;;
5869;SDS011;2961;47.702;9.410;2022-09-24T11:55:25;4.60;;;3.43;;
5869;SDS011;2961;47.702;9.410;2022-09-24T11:58:02;4.73;;;3.73;;
5869;SDS011;2961;47.702;9.410;2022-09-24T12:00:39;7.53;;;4.40;;
5869;SDS011;2961;47.702;9.410;2022-09-24T12:03:13;4.53;;;4.00;;
5869;SDS011;2961;47.702;9.410;2022-09-24T12:05:46;6.03;;;3.60;;
5869;SDS011;2961;47.702;9.410;2022-09-24T12:08:19;4.13;;;3.87;;
5869;SDS011;2961;47.702;9.410;2022-09-24T12:10:52;5.23;;;3.87;;
5869;SDS011;2961;47.702;9.410;2022-09-24T12:13:24;5.53;;;4.30;;
5869;SDS011;2961;47.702;9.410;2022-09-24T12:15:56;4.30;;;3.93;;
5869;SDS011;2961;47.702;9.410;2022-09-24T12:18:26;4.13;;;3.83;;
5869;SDS011;2961;47.702;9.410;2022-09-24T12:20:57;3.33;;;3.13;;
5869;SDS011;2961;47.702;9.410;2022-09-24T12:23:29;5.33;;;3.77;;
5869;SDS011;2961;47.702;9.410;2022-09-24T12:25:59;5.13;;;4.33;;
5869;SDS011;2961;47.702;9.410;2022-09-24T12:28:31;4.63;;;3.87;;
5869;SDS011;2961;47.702;9.410;2022-09-24T12:31:24;4.07;;;3.67;;
5869;SDS011;2961;47.702;9.410;2022-09-24T12:34:15;3.80;;;2.93;;
5869;SDS011;2961;47.702;9.410;2022-09-24T12:36:52;2.50;;;2.40;;
5869;SDS011;2961;47.702;9.410;2022-09-24T12:39:27;3.20;;;3.10;;
5869;SDS011;2961;47.702;9.410;2022-09-24T12:41:58;9.83;;;3.53;;
5869;SDS011;2961;47.702;9.410;2022-09-24T12:44:30;4.13;;;3.03;;
5869;SDS011;2961;47.702;9.410;2022-09-24T12:47:02;3.17;;;2.97;;
5869;SDS011;2961;47.702;9.410;2022-09-24T12:49:31;5.50;;;3.27;;
5869;SDS011;2961;47.702;9.410;2022-09-24T12:52:00;3.60;;;3.27;;
5869;SDS011;2961;47.702;9.410;2022-09-24T12:54:30;4.13;;;3.73;;
5869;SDS011;2961;47.702;9.410;2022-09-24T12:57:06;3.70;;;3.40;;
5869;SDS011;2961;47.702;9.410;2022-09-24T12:59:44;4.23;;;3.97;;
5869;SDS011;2961;47.702;9.410;2022-09-24T13:02:17;3.47;;;3.17;;
5869;SDS011;2961;47.702;9.410;2022-09-24T13:04:49;3.70;;;3.40;;
5869;SDS011;2961;47.702;9.410;2022-09-24T13:07:29;3.63;;;3.40;;
5869;SDS011;2961;47.702;9.410;2022-09-24T13:10:09;4.07;;;3.67;;
5869;SDS011;2961;47.702;9.410;2022-09-24T13:12:44;6.70;;;4.37;;
5869;SDS011;2961;47.702;9.410;2022-09-24T13:15:17;3.80;;;3.50;;
5869;SDS011;2961;47.702;9.410;2022-09-24T13:17:58;3.27;;;2.73;;
5869;SDS011;2961;47.702;9.410;2022-09-24T13:20:43;3.10;;;2.80;;
5869;SDS011;2961;47.702;9.410;2022-09-24T13:23:28;4.33;;;3.10;;
5869;SDS011;2961;47.702;9.410;2022-09-24T13:26:11;2.88;;;2.72;;
5869;SDS011;2961;47.702;9.410;2022-09-24T13:28:49;9.80;;;3.00;;
5869;SDS011;2961;47.702;9.410;2022-09-24T13:31:21;3.93;;;3.50;;
5869;SDS011;2961;47.702;9.410;2022-09-24T13:33:56;3.83;;;3.53;;
5869;SDS011;2961;47.702;9.410;2022-09-24T13:36:27;4.87;;;3.67;;
5869;SDS011;2961;47.702;9.410;2022-09-24T13:39:02;5.90;;;5.40;;
5869;SDS011;2961;47.702;9.410;2022-09-24T13:41:36;5.90;;;5.40;;
5869;SDS011;2961;47.702;9.410;2022-09-24T13:44:12;4.60;;;4.30;;
5869;SDS011;2961;47.702;9.410;2022-09-24T13:46:44;3.00;;;2.80;;
5869;SDS011;2961;47.702;9.410;2022-09-24T13:49:16;3.10;;;2.70;;
5869;SDS011;2961;47.702;9.410;2022-09-24T13:51:45;2.90;;;2.80;;
5869;SDS011;2961;47.702;9.410;2022-09-24T13:54:22;4.10;;;2.80;;
5869;SDS011;2961;47.702;9.410;2022-09-24T13:57:05;5.27;;;3.00;;
5869;SDS011;2961;47.702;9.410;2022-09-24T13:59:36;3.50;;;3.20;;
5869;SDS011;2961;47.702;9.410;2022-09-24T14:02:03;3.83;;;2.67;;
5869;SDS011;2961;47.702;9.410;2022-09-24T14:04:52;3.17;;;2.83;;
5869;SDS011;2961;47.702;9.410;2022-09-24T14:07:20;3.40;;;3.20;;
5869;SDS011;2961;47.702;9.410;2022-09-24T14:09:47;6.73;;;2.67;;
5869;SDS011;2961;47.702;9.410;2022-09-24T14:12:17;3.10;;;2.90;;
5869;SDS011;2961;47.702;9.410;2022-09-24T14:14:49;2.97;;;2.87;;
5869;SDS011;2961;47.702;9.410;2022-09-24T14:17:19;3.73;;;3.43;;
5869;SDS011;2961;47.702;9.410;2022-09-24T14:19:46;3.97;;;3.67;;
5869;SDS011;2961;47.702;9.410;2022-09-24T14:22:15;3.83;;;3.63;;
5869;SDS011;2961;47.702;9.410;2022-09-24T14:24:47;4.20;;;3.40;;
5869;SDS011;2961;47.702;9.410;2022-09-24T14:27:21;3.70;;;3.47;;
5869;SDS011;2961;47.702;9.410;2022-09-24T14:29:51;3.50;;;3.30;;
5869;SDS011;2961;47.702;9.410;2022-09-24T14:32:21;4.97;;;3.87;;
5869;SDS011;2961;47.702;9.410;2022-09-24T14:34:52;4.20;;;3.80;;
5869;SDS011;2961;47.702;9.410;2022-09-24T14:37:21;3.47;;;3.30;;
5869;SDS011;2961;47.702;9.410;2022-09-24T14:39:56;4.50;;;3.93;;
5869;SDS011;2961;47.702;9.410;2022-09-24T14:42:28;4.10;;;3.83;;
5869;SDS011;2961;47.702;9.410;2022-09-24T14:44:58;4.40;;;4.00;;
5869;SDS011;2961;47.702;9.410;2022-09-24T14:47:29;3.60;;;3.40;;
5869;SDS011;2961;47.702;9.410;2022-09-24T14:49:56;4.73;;;4.43;;
5869;SDS011;2961;47.702;9.410;2022-09-24T14:52:25;4.60;;;4.20;;
5869;SDS011;2961;47.702;9.410;2022-09-24T14:55:12;4.30;;;4.00;;
5869;SDS011;2961;47.702;9.410;2022-09-24T14:57:41;5.10;;;4.73;;
5869;SDS011;2961;47.702;9.410;2022-09-24T15:00:19;5.23;;;4.93;;
5869;SDS011;2961;47.702;9.410;2022-09-24T15:02:49;4.77;;;4.43;;
5869;SDS011;2961;47.702;9.410;2022-09-24T15:05:22;6.80;;;5.67;;
5869;SDS011;2961;47.702;9.410;2022-09-24T15:07:49;6.03;;;5.53;;
5869;SDS011;2961;47.702;9.410;2022-09-24T15:10:18;5.80;;;5.30;;
5869;SDS011;2961;47.702;9.410;2022-09-24T15:12:48;7.83;;;5.10;;
5869;SDS011;2961;47.702;9.410;2022-09-24T15:15:26;7.13;;;5.53;;
5869;SDS011;2961;47.702;9.410;2022-09-24T15:17:56;6.00;;;5.40;;
5869;SDS011;2961;47.702;9.410;2022-09-24T15:20:23;6.00;;;5.53;;
5869;SDS011;2961;47.702;9.410;2022-09-24T15:22:50;6.53;;;4.83;;
5869;SDS011;2961;47.702;9.410;2022-09-24T15:25:17;5.20;;;4.70;;
5869;SDS011;2961;47.702;9.410;2022-09-24T15:27:43;4.20;;;3.90;;
5869;SDS011;2961;47.702;9.410;2022-09-24T15:30:17;4.80;;;4.50;;
5869;SDS011;2961;47.702;9.410;2022-09-24T15:32:45;4.67;;;4.27;;